Time;durP1;ratioP1;P1;durP2;ratioP2;P2;SDS_P1;SDS_P2;PMS_P1;PMS_P2;Temp;Humidity;BMP_temperature;BMP_pressure;BME280_temperature;BME280_humidity;BME280_pressure;Samples;Min_cycle;Max_cycle;Signal;HPM_P1;HPM_P2
2024/03/03 00:01:59;;;;;;;;;;;17.20;64.70;;;;;;5092106;28;19983;-76
2024/03/03 00:04:25;;;;;;;;;;;17.20;65.30;;;;;;5092119;28;19916;-76
2024/03/03 00:06:51;;;;;;;;;;;17.20;65.00;;;;;;5092241;28;20008;-76
2024/03/03 00:09:18;;;;;;;;;;;17.30;65.10;;;;;;5092292;28;19947;-76
2024/03/03 00:11:43;;;;;;;;;;;17.20;65.00;;;;;;5092229;28;19908;-76
2024/03/03 00:14:09;;;;;;;;;;;16.40;64.70;;;;;;5092303;28;19908;-76
2024/03/03 00:16:39;;;;;;;;;;;17.30;65.40;;;;;;5091777;28;19919;-76
2024/03/03 00:19:05;;;;;;;;;;;17.20;65.50;;;;;;5092430;28;19909;-76
2024/03/03 00:21:30;;;;;;;;;;;17.20;65.40;;;;;;5091831;28;19920;-76
2024/03/03 00:23:55;;;;;;;;;;;17.20;65.40;;;;;;5091787;28;19909;-76
2024/03/03 00:26:21;;;;;;;;;;;17.80;65.60;;;;;;5091908;28;20374;-76
2024/03/03 00:28:46;;;;;;;;;;;17.20;65.50;;;;;;5091797;28;19939;-76
2024/03/03 00:31:12;;;;;;;;;;;17.20;65.30;;;;;;5091862;28;19916;-76
2024/03/03 00:33:38;;;;;;;;;;;17.30;65.50;;;;;;5091795;28;19908;-76
2024/03/03 00:36:05;;;;;;;;;;;17.20;65.50;;;;;;5091757;28;19908;-76
2024/03/03 00:38:32;;;;;;;;;;;17.30;64.40;;;;;;5091572;28;20328;-76
2024/03/03 00:40:57;;;;;;;;;;;17.30;65.40;;;;;;5091628;28;19923;-77
2024/03/03 00:43:23;;;;;;;;;;;17.30;65.50;;;;;;5091722;28;19908;-76
2024/03/03 00:45:48;;;;;;;;;;;17.30;65.50;;;;;;5091629;28;19990;-77
2024/03/03 00:48:14;;;;;;;;;;;17.20;65.50;;;;;;5090455;28;20322;-76
2024/03/03 00:50:39;;;;;;;;;;;17.20;65.50;;;;;;5091687;28;19939;-77
2024/03/03 00:53:05;;;;;;;;;;;17.40;65.60;;;;;;5091597;28;19951;-76
2024/03/03 00:55:30;;;;;;;;;;;17.30;65.50;;;;;;5091477;28;19909;-76
2024/03/03 00:57:56;;;;;;;;;;;17.20;65.40;;;;;;5091520;28;20332;-76
2024/03/03 01:00:21;;;;;;;;;;;17.30;65.40;;;;;;5093678;28;19920;-76
2024/03/03 01:02:47;;;;;;;;;;;17.30;65.00;;;;;;5095102;28;19956;-76
2024/03/03 01:05:15;;;;;;;;;;;18.20;66.00;;;;;;5095508;28;20007;-76
2024/03/03 01:07:41;;;;;;;;;;;17.00;60.80;;;;;;5093829;28;19908;-71
2024/03/03 01:10:06;;;;;;;;;;;17.30;65.50;;;;;;5094972;28;19938;-71
2024/03/03 01:12:32;;;;;;;;;;;17.30;64.40;;;;;;5095278;28;20030;-71
2024/03/03 01:14:57;;;;;;;;;;;17.40;65.50;;;;;;5094931;28;19920;-71
2024/03/03 01:17:23;;;;;;;;;;;17.30;65.20;;;;;;5095053;28;19916;-71
2024/03/03 01:19:48;;;;;;;;;;;17.30;65.30;;;;;;5094712;28;19922;-71
2024/03/03 01:22:14;;;;;;;;;;;17.30;65.30;;;;;;5094746;28;20362;-71
2024/03/03 01:24:40;;;;;;;;;;;17.30;65.10;;;;;;5094688;28;19954;-71
2024/03/03 01:27:06;;;;;;;;;;;17.30;65.30;;;;;;5094651;28;19908;-71
2024/03/03 01:29:32;;;;;;;;;;;17.20;65.10;;;;;;5094660;28;19918;-72
2024/03/03 01:31:57;;;;;;;;;;;17.30;65.40;;;;;;5094641;28;19996;-72
2024/03/03 01:34:23;;;;;;;;;;;16.80;64.90;;;;;;5094970;28;19908;-72
2024/03/03 01:36:48;;;;;;;;;;;17.30;65.50;;;;;;5094459;28;19999;-72
2024/03/03 01:39:14;;;;;;;;;;;17.30;65.60;;;;;;5094171;28;20386;-72
2024/03/03 01:41:46;;;;;;;;;;;17.30;65.60;;;;;;5094541;28;19916;-72
2024/03/03 01:44:12;;;;;;;;;;;17.30;61.20;;;;;;5094361;28;19951;-72
2024/03/03 01:46:38;;;;;;;;;;;17.30;65.50;;;;;;5094417;28;19951;-71
2024/03/03 01:49:04;;;;;;;;;;;17.40;65.80;;;;;;5094253;28;19908;-71
2024/03/03 01:51:29;;;;;;;;;;;17.30;65.70;;;;;;5094245;28;20375;-71
2024/03/03 01:53:55;;;;;;;;;;;17.40;65.80;;;;;;5094158;28;19916;-71
2024/03/03 01:56:22;;;;;;;;;;;17.30;65.50;;;;;;5094023;28;19908;-71
2024/03/03 01:58:47;;;;;;;;;;;17.30;66.10;;;;;;5094082;28;19949;-71
2024/03/03 02:01:14;;;;;;;;;;;;;;;;;;5093874;28;19990;-71
2024/03/03 02:03:40;;;;;;;;;;;17.40;62.30;;;;;;5094511;28;19908;-71
2024/03/03 02:06:06;;;;;;;;;;;17.30;65.70;;;;;;5094132;28;19931;-71
2024/03/03 02:08:33;;;;;;;;;;;17.40;65.90;;;;;;5093873;28;19912;-71
2024/03/03 02:10:58;;;;;;;;;;;19.20;66.90;;;;;;5093500;28;19908;-71
2024/03/03 02:13:24;;;;;;;;;;;17.40;65.90;;;;;;5093767;28;19958;-72
2024/03/03 02:15:49;;;;;;;;;;;17.30;65.60;;;;;;5093744;28;19931;-76
2024/03/03 02:18:15;;;;;;;;;;;17.40;65.60;;;;;;5093638;28;19924;-76
2024/03/03 02:20:41;;;;;;;;;;;17.40;65.90;;;;;;5093522;28;19916;-76
2024/03/03 02:23:06;;;;;;;;;;;17.30;65.60;;;;;;5093518;28;19916;-75
2024/03/03 02:25:32;;;;;;;;;;;17.30;65.80;;;;;;5093627;28;19908;-76
2024/03/03 02:27:58;;;;;;;;;;;17.30;65.60;;;;;;5093841;28;19994;-76
2024/03/03 02:30:24;;;;;;;;;;;17.40;65.60;;;;;;5093614;28;19942;-76
2024/03/03 02:32:50;;;;;;;;;;;17.20;65.60;;;;;;5093975;28;19915;-76
2024/03/03 02:35:15;;;;;;;;;;;17.30;65.80;;;;;;5093392;28;20267;-76
2024/03/03 02:37:45;;;;;;;;;;;17.40;65.70;;;;;;5093386;28;19912;-76
2024/03/03 02:40:11;;;;;;;;;;;17.40;61.40;;;;;;5093111;28;20027;-75
2024/03/03 02:42:36;;;;;;;;;;;17.40;65.80;;;;;;5093310;28;19954;-76
2024/03/03 02:45:02;;;;;;;;;;;17.40;65.70;;;;;;5093400;28;19908;-76
2024/03/03 02:47:27;;;;;;;;;;;17.40;65.10;;;;;;5093214;28;19908;-76
2024/03/03 02:49:53;;;;;;;;;;;17.40;65.90;;;;;;5093223;28;20046;-76
2024/03/03 02:52:19;;;;;;;;;;;17.30;65.90;;;;;;5093120;28;20298;-76
2024/03/03 02:54:44;;;;;;;;;;;17.40;65.70;;;;;;5093169;28;19968;-76
2024/03/03 02:57:10;;;;;;;;;;;17.30;66.00;;;;;;5093103;28;20408;-76
2024/03/03 02:59:35;;;;;;;;;;;17.30;65.80;;;;;;5093617;28;19908;-76
2024/03/03 03:02:01;;;;;;;;;;;17.30;65.40;;;;;;5092838;28;20007;-76
2024/03/03 03:04:27;;;;;;;;;;;17.40;65.80;;;;;;5092927;28;19931;-76
2024/03/03 03:06:52;;;;;;;;;;;17.30;65.80;;;;;;5092798;28;20206;-76
2024/03/03 03:09:18;;;;;;;;;;;17.30;65.60;;;;;;5092846;28;19970;-76
2024/03/03 03:11:43;;;;;;;;;;;17.30;65.90;;;;;;5092828;28;19995;-76
2024/03/03 03:14:09;;;;;;;;;;;17.30;65.80;;;;;;5092745;28;20007;-76
2024/03/03 03:16:38;;;;;;;;;;;17.30;65.80;;;;;;5092638;28;19915;-76
2024/03/03 03:19:04;;;;;;;;;;;17.40;65.80;;;;;;5092703;28;19948;-76
2024/03/03 03:21:29;;;;;;;;;;;17.30;65.80;;;;;;5092215;28;19978;-76
2024/03/03 03:23:54;;;;;;;;;;;17.30;65.70;;;;;;5092219;28;19908;-76
2024/03/03 03:26:20;;;;;;;;;;;17.40;65.90;;;;;;5092763;28;19908;-76
2024/03/03 03:28:46;;;;;;;;;;;17.30;65.40;;;;;;5092930;28;20003;-76
2024/03/03 03:31:12;;;;;;;;;;;17.40;65.80;;;;;;5092387;28;19962;-76
2024/03/03 03:33:38;;;;;;;;;;;17.30;65.40;;;;;;5092405;28;19951;-75
2024/03/03 03:36:07;;;;;;;;;;;17.30;65.80;;;;;;5092381;28;19916;-76
2024/03/03 03:38:32;;;;;;;;;;;17.30;65.00;;;;;;5092134;28;19923;-76
2024/03/03 03:40:57;;;;;;;;;;;17.30;65.90;;;;;;5092364;28;19916;-76
2024/03/03 03:43:25;;;;;;;;;;;17.40;62.70;;;;;;5091835;28;20218;-76
2024/03/03 03:45:50;;;;;;;;;;;17.30;66.10;;;;;;5092151;28;20446;-76
2024/03/03 03:48:16;;;;;;;;;;;17.50;65.80;;;;;;5092253;28;19916;-76
2024/03/03 03:50:41;;;;;;;;;;;17.00;65.60;;;;;;5092151;28;19958;-76
2024/03/03 03:53:08;;;;;;;;;;;17.30;65.80;;;;;;5092236;28;19912;-76
2024/03/03 03:55:33;;;;;;;;;;;17.80;66.30;;;;;;5092093;28;19962;-76
2024/03/03 03:57:59;;;;;;;;;;;17.30;65.50;;;;;;5092671;28;19912;-76
2024/03/03 04:00:24;;;;;;;;;;;17.30;65.90;;;;;;5092299;28;19916;-76
2024/03/03 04:02:50;;;;;;;;;;;17.30;65.20;;;;;;5091974;28;19915;-76
2024/03/03 04:05:15;;;;;;;;;;;17.30;65.70;;;;;;5092381;28;20327;-77
2024/03/03 04:07:41;;;;;;;;;;;17.30;65.30;;;;;;5092099;28;20105;-76
2024/03/03 04:10:07;;;;;;;;;;;17.30;65.80;;;;;;5092086;28;19958;-76
2024/03/03 04:12:32;;;;;;;;;;;17.40;65.00;;;;;;5092301;28;19912;-76
2024/03/03 04:14:58;;;;;;;;;;;17.40;65.80;;;;;;5091979;28;19909;-76
2024/03/03 04:17:23;;;;;;;;;;;17.40;65.50;;;;;;5091930;28;19951;-76
2024/03/03 04:19:49;;;;;;;;;;;17.30;65.70;;;;;;5091841;28;19985;-76
2024/03/03 04:22:14;;;;;;;;;;;17.30;65.60;;;;;;5091797;28;20404;-76
2024/03/03 04:24:43;;;;;;;;;;;17.30;65.70;;;;;;5092177;28;19909;-76
2024/03/03 04:27:08;;;;;;;;;;;18.90;63.10;;;;;;5091975;28;19908;-77
2024/03/03 04:29:34;;;;;;;;;;;17.30;65.60;;;;;;5091854;28;19908;-76
2024/03/03 04:31:59;;;;;;;;;;;17.00;65.70;;;;;;5091713;28;19997;-76
2024/03/03 04:34:25;;;;;;;;;;;17.30;65.90;;;;;;5094200;28;19908;-76
2024/03/03 04:36:51;;;;;;;;;;;17.30;65.90;;;;;;5095809;28;20008;-76
2024/03/03 04:39:16;;;;;;;;;;;17.30;65.80;;;;;;5095629;28;20370;-76
2024/03/03 04:41:42;;;;;;;;;;;17.30;66.00;;;;;;5095423;28;19962;-77
2024/03/03 04:44:08;;;;;;;;;;;17.30;65.70;;;;;;5095804;28;19912;-76
2024/03/03 04:46:34;;;;;;;;;;;17.30;66.00;;;;;;5095536;28;20012;-76
2024/03/03 04:48:59;;;;;;;;;;;17.80;66.10;;;;;;5095701;28;19962;-76
2024/03/03 04:51:25;;;;;;;;;;;17.30;65.90;;;;;;5094497;28;20401;-76
2024/03/03 04:53:50;;;;;;;;;;;17.40;66.00;;;;;;5095988;28;19956;-76
2024/03/03 04:56:17;;;;;;;;;;;17.30;66.00;;;;;;5095553;28;19912;-76
2024/03/03 04:58:43;;;;;;;;;;;17.70;65.90;;;;;;5095227;28;19913;-76
2024/03/03 05:01:08;;;;;;;;;;;17.80;66.90;;;;;;5095140;28;19924;-76
2024/03/03 05:03:34;;;;;;;;;;;17.30;65.40;;;;;;5095148;28;20363;-76
2024/03/03 05:06:00;;;;;;;;;;;17.40;66.00;;;;;;5095155;28;19908;-76
2024/03/03 05:08:25;;;;;;;;;;;17.30;66.00;;;;;;5095180;28;19908;-76
2024/03/03 05:10:51;;;;;;;;;;;17.70;66.50;;;;;;5094980;28;19916;-76
2024/03/03 05:13:16;;;;;;;;;;;17.30;65.80;;;;;;5094925;28;20378;-76
2024/03/03 05:15:42;;;;;;;;;;;17.20;65.70;;;;;;5094997;28;19908;-76
2024/03/03 05:18:07;;;;;;;;;;;17.40;65.90;;;;;;5094907;28;19983;-76
2024/03/03 05:20:33;;;;;;;;;;;17.30;65.80;;;;;;5094841;28;19964;-76
2024/03/03 05:22:58;;;;;;;;;;;17.30;65.80;;;;;;5095493;28;19909;-76
2024/03/03 05:25:24;;;;;;;;;;;17.30;65.80;;;;;;5094957;28;19953;-76
2024/03/03 05:27:51;;;;;;;;;;;17.20;66.30;;;;;;5094896;28;19908;-77
2024/03/03 05:30:17;;;;;;;;;;;17.30;66.00;;;;;;5094732;28;19919;-76
2024/03/03 05:32:42;;;;;;;;;;;17.20;66.40;;;;;;5094772;28;19909;-76
2024/03/03 05:35:08;;;;;;;;;;;17.30;65.70;;;;;;5094714;28;19907;-76
2024/03/03 05:37:33;;;;;;;;;;;17.30;65.50;;;;;;5094568;28;19915;-76
2024/03/03 05:39:59;;;;;;;;;;;17.30;65.80;;;;;;5094401;28;19931;-76
2024/03/03 05:42:24;;;;;;;;;;;17.30;65.50;;;;;;5094406;28;20338;-76
2024/03/03 05:44:50;;;;;;;;;;;17.20;65.60;;;;;;5093937;28;19908;-76
2024/03/03 05:47:15;;;;;;;;;;;17.40;65.50;;;;;;5094269;28;19908;-76
2024/03/03 05:49:41;;;;;;;;;;;17.20;65.70;;;;;;5094326;28;19912;-76
2024/03/03 05:52:07;;;;;;;;;;;17.30;65.60;;;;;;5094739;28;20360;-76
2024/03/03 05:54:33;;;;;;;;;;;17.20;65.60;;;;;;5094137;28;20417;-76
2024/03/03 05:56:58;;;;;;;;;;;17.20;65.50;;;;;;5094171;28;19939;-76
2024/03/03 05:59:24;;;;;;;;;;;17.20;65.60;;;;;;5094122;28;19956;-76
2024/03/03 06:01:49;;;;;;;;;;;17.30;65.10;;;;;;5093968;28;19938;-76
2024/03/03 06:04:18;;;;;;;;;;;17.20;65.60;;;;;;5094070;28;19908;-76
2024/03/03 06:06:44;;;;;;;;;;;17.20;61.00;;;;;;5094002;28;20449;-76
2024/03/03 06:09:12;;;;;;;;;;;17.30;65.80;;;;;;5093995;28;19908;-76
2024/03/03 06:11:41;;;;;;;;;;;17.40;65.60;;;;;;5093952;28;20290;-76
2024/03/03 06:14:07;;;;;;;;;;;17.30;61.10;;;;;;5093854;28;20297;-76
2024/03/03 06:16:33;;;;;;;;;;;17.30;65.80;;;;;;5093792;28;19937;-76
2024/03/03 06:18:58;;;;;;;;;;;17.30;65.20;;;;;;5094253;28;19971;-76
2024/03/03 06:21:24;;;;;;;;;;;17.20;65.80;;;;;;5093548;28;19971;-76
2024/03/03 06:23:49;;;;;;;;;;;17.20;65.90;;;;;;5093682;28;20497;-76
2024/03/03 06:26:15;;;;;;;;;;;17.20;65.60;;;;;;5093593;28;19915;-76
2024/03/03 06:28:44;;;;;;;;;;;17.20;65.70;;;;;;5093540;28;20332;-76
2024/03/03 06:31:10;;;;;;;;;;;17.40;65.70;;;;;;5093528;28;19915;-76
2024/03/03 06:33:36;;;;;;;;;;;17.20;65.90;;;;;;5093392;28;19908;-76
2024/03/03 06:36:01;;;;;;;;;;;17.20;65.60;;;;;;5093334;28;20011;-76
2024/03/03 06:38:27;;;;;;;;;;;17.20;65.80;;;;;;5093021;28;20392;-76
2024/03/03 06:40:52;;;;;;;;;;;17.20;65.60;;;;;;5093105;28;19920;-76
2024/03/03 06:43:20;;;;;;;;;;;17.20;65.80;;;;;;5093066;28;19919;-76
2024/03/03 06:45:45;;;;;;;;;;;17.20;65.70;;;;;;5093147;28;19908;-76
2024/03/03 06:48:11;;;;;;;;;;;17.20;65.70;;;;;;5093673;28;19909;-71
2024/03/03 06:50:36;;;;;;;;;;;17.20;65.80;;;;;;5092996;28;20397;-71
2024/03/03 06:53:02;;;;;;;;;;;17.20;65.90;;;;;;5092949;28;19953;-72
2024/03/03 06:55:27;;;;;;;;;;;17.10;65.70;;;;;;5092944;28;19908;-71
2024/03/03 06:57:53;;;;;;;;;;;17.40;66.20;;;;;;5091898;28;19908;-71
2024/03/03 07:00:19;;;;;;;;;;;17.10;66.00;;;;;;5093201;28;19924;-71
2024/03/03 07:03:12;;;;;;;;;;;17.20;65.30;;;;;;5092995;28;19908;-72
2024/03/03 07:05:38;;;;;;;;;;;17.20;62.40;;;;;;5092669;28;19908;-71
2024/03/03 07:08:04;;;;;;;;;;;17.20;65.80;;;;;;5092699;28;19916;-71
2024/03/03 07:10:30;;;;;;;;;;;17.00;64.60;;;;;;5092604;28;20014;-72
2024/03/03 07:12:56;;;;;;;;;;;17.20;65.90;;;;;;5092879;28;19959;-71
2024/03/03 07:15:21;;;;;;;;;;;17.70;65.90;;;;;;5092659;28;19918;-72
2024/03/03 07:17:47;;;;;;;;;;;17.20;66.00;;;;;;5093027;28;20362;-71
2024/03/03 07:20:12;;;;;;;;;;;17.20;66.00;;;;;;5092493;28;19908;-72
2024/03/03 07:22:38;;;;;;;;;;;17.30;65.60;;;;;;5092510;28;19908;-71
2024/03/03 07:25:04;;;;;;;;;;;17.30;66.10;;;;;;5092449;28;19915;-72
2024/03/03 07:27:30;;;;;;;;;;;17.20;64.80;;;;;;5092490;28;20003;-71
2024/03/03 07:29:55;;;;;;;;;;;17.20;65.70;;;;;;5092456;28;19953;-71
2024/03/03 07:32:21;;;;;;;;;;;17.20;65.90;;;;;;5092287;28;19908;-72
2024/03/03 07:34:49;;;;;;;;;;;17.20;66.00;;;;;;5092600;28;19908;-72
2024/03/03 07:37:14;;;;;;;;;;;17.30;65.70;;;;;;5092308;28;19908;-71
2024/03/03 07:39:43;;;;;;;;;;;17.30;66.00;;;;;;5091907;28;20406;-71
2024/03/03 07:42:11;;;;;;;;;;;17.20;61.50;;;;;;5092152;28;19916;-71
2024/03/03 07:44:37;;;;;;;;;;;17.20;61.50;;;;;;5092723;28;19966;-74
2024/03/03 07:47:02;;;;;;;;;;;17.30;65.90;;;;;;5092150;28;19951;-71
2024/03/03 07:49:28;;;;;;;;;;;17.20;65.70;;;;;;5092117;28;20264;-72
2024/03/03 07:51:53;;;;;;;;;;;17.30;66.10;;;;;;5093365;28;19980;-72
2024/03/03 07:54:19;;;;;;;;;;;17.30;66.10;;;;;;5094514;28;19935;-72
2024/03/03 07:56:44;;;;;;;;;;;17.30;66.40;;;;;;5092300;28;19908;-72
2024/03/03 07:59:10;;;;;;;;;;;17.30;66.40;;;;;;5092001;28;19916;-72
2024/03/03 08:01:35;;;;;;;;;;;17.20;65.70;;;;;;5092116;28;19963;-72
2024/03/03 08:04:01;;;;;;;;;;;17.40;66.30;;;;;;5091983;28;20141;-73
2024/03/03 08:06:27;;;;;;;;;;;17.30;66.40;;;;;;5091890;28;19908;-71
2024/03/03 08:08:52;;;;;;;;;;;17.30;66.20;;;;;;5094216;28;20376;-72
2024/03/03 08:11:18;;;;;;;;;;;17.30;66.30;;;;;;5099266;28;20285;-77
2024/03/03 08:13:43;;;;;;;;;;;17.40;66.30;;;;;;5095248;28;19915;-74
2024/03/03 08:16:09;;;;;;;;;;;17.30;66.40;;;;;;5096121;28;19908;-74
2024/03/03 08:18:34;;;;;;;;;;;17.30;66.90;;;;;;5096016;28;19912;-72
2024/03/03 08:21:00;;;;;;;;;;;17.40;66.20;;;;;;5095909;28;20019;-72
2024/03/03 08:23:26;;;;;;;;;;;17.40;66.20;;;;;;5096382;28;19912;-73
2024/03/03 08:25:51;;;;;;;;;;;17.40;66.30;;;;;;5096033;28;19912;-72
2024/03/03 08:28:17;;;;;;;;;;;17.30;66.20;;;;;;5096113;28;19916;-71
2024/03/03 08:30:42;;;;;;;;;;;17.40;66.30;;;;;;5095834;28;19947;-73
2024/03/03 08:33:08;;;;;;;;;;;17.30;66.80;;;;;;5095772;28;19912;-72
2024/03/03 08:35:33;;;;;;;;;;;17.30;66.40;;;;;;5095756;28;19908;-72
2024/03/03 08:37:59;;;;;;;;;;;17.30;66.30;;;;;;5095730;28;19939;-72
2024/03/03 08:40:24;;;;;;;;;;;17.40;66.30;;;;;;5095311;28;19934;-71
2024/03/03 08:42:50;;;;;;;;;;;17.30;66.10;;;;;;5096184;28;19914;-71
2024/03/03 08:45:16;;;;;;;;;;;17.30;66.20;;;;;;5095628;28;19908;-72
2024/03/03 08:47:41;;;;;;;;;;;17.30;65.70;;;;;;5095560;28;19908;-71
2024/03/03 08:50:09;;;;;;;;;;;17.30;66.50;;;;;;5095363;28;19908;-71
2024/03/03 08:52:35;;;;;;;;;;;17.30;65.20;;;;;;5095732;28;19984;-71
2024/03/03 08:55:01;;;;;;;;;;;17.30;66.40;;;;;;5095350;28;19949;-71
2024/03/03 08:57:26;;;;;;;;;;;17.40;66.20;;;;;;5095392;28;19915;-70
2024/03/03 08:59:52;;;;;;;;;;;17.40;66.50;;;;;;5095186;28;19912;-71
2024/03/03 09:02:17;;;;;;;;;;;17.40;66.00;;;;;;5095051;28;20013;-71
2024/03/03 09:04:43;;;;;;;;;;;17.40;66.50;;;;;;5095049;28;20002;-70
2024/03/03 09:07:08;;;;;;;;;;;17.40;66.40;;;;;;5095098;28;20267;-71
2024/03/03 09:09:37;;;;;;;;;;;17.40;66.50;;;;;;5095350;28;19908;-71
2024/03/03 09:12:03;;;;;;;;;;;17.40;66.50;;;;;;5093744;28;20327;-72
2024/03/03 09:14:28;;;;;;;;;;;17.40;65.50;;;;;;5095156;28;19914;-76
2024/03/03 09:16:54;;;;;;;;;;;17.50;66.50;;;;;;5094989;28;19909;-77
2024/03/03 09:19:19;;;;;;;;;;;17.40;66.40;;;;;;5094743;28;20339;-76
2024/03/03 09:21:45;;;;;;;;;;;17.40;66.40;;;;;;5093910;28;19923;-76
2024/03/03 09:24:11;;;;;;;;;;;17.40;66.20;;;;;;5094873;28;20462;-78
2024/03/03 09:26:36;;;;;;;;;;;17.40;66.60;;;;;;5094858;28;20290;-75
2024/03/03 09:29:02;;;;;;;;;;;17.40;66.30;;;;;;5095071;28;20002;-75
2024/03/03 09:31:27;;;;;;;;;;;17.40;66.50;;;;;;5094856;28;19960;-76
2024/03/03 09:33:52;;;;;;;;;;;17.50;66.30;;;;;;5094804;28;19927;-76
2024/03/03 09:36:18;;;;;;;;;;;17.40;66.50;;;;;;5094568;28;19908;-76
2024/03/03 09:38:45;;;;;;;;;;;17.50;66.20;;;;;;5094469;28;19955;-76
2024/03/03 09:41:10;;;;;;;;;;;17.40;66.70;;;;;;5094413;28;19916;-76
2024/03/03 09:43:37;;;;;;;;;;;17.40;66.10;;;;;;5094465;28;20397;-76
2024/03/03 09:46:03;;;;;;;;;;;17.50;66.70;;;;;;5094411;28;20036;-76
2024/03/03 09:48:28;;;;;;;;;;;17.50;66.00;;;;;;5094741;28;19912;-76
2024/03/03 09:50:55;;;;;;;;;;;17.50;66.70;;;;;;5094308;28;19908;-76
2024/03/03 09:53:20;;;;;;;;;;;17.40;66.60;;;;;;5094223;28;20279;-76
2024/03/03 09:55:47;;;;;;;;;;;17.50;66.70;;;;;;5094254;28;19915;-76
2024/03/03 09:58:12;;;;;;;;;;;17.40;66.70;;;;;;5094110;28;20020;-76
2024/03/03 10:00:38;;;;;;;;;;;17.50;66.80;;;;;;5094004;28;20353;-76
2024/03/03 10:03:06;;;;;;;;;;;18.90;66.90;;;;;;5094128;28;19927;-76
2024/03/03 10:05:33;;;;;;;;;;;17.50;66.10;;;;;;5094058;28;20396;-75
2024/03/03 10:08:02;;;;;;;;;;;17.50;66.80;;;;;;5094113;28;20302;-77
2024/03/03 10:10:31;;;;;;;;;;;17.70;67.30;;;;;;5093990;28;19953;-77
2024/03/03 10:12:58;;;;;;;;;;;17.50;67.00;;;;;;5093883;28;19909;-76
2024/03/03 10:15:24;;;;;;;;;;;17.50;67.10;;;;;;5094060;28;20369;-76
2024/03/03 10:17:50;;;;;;;;;;;17.50;67.60;;;;;;5094222;28;19962;-75
2024/03/03 10:20:16;;;;;;;;;;;17.50;66.80;;;;;;5096148;28;19927;-77
2024/03/03 10:22:43;;;;;;;;;;;17.50;66.50;;;;;;5093668;28;19912;-81
2024/03/03 10:25:13;;;;;;;;;;;17.60;67.10;;;;;;5093604;28;19908;-78
2024/03/03 10:27:47;;;;;;;;;;;17.50;66.60;;;;;;5093636;28;19927;-78
2024/03/03 10:30:17;;;;;;;;;;;17.40;66.90;;;;;;5093617;28;20003;-78
2024/03/03 10:32:43;;;;;;;;;;;17.50;66.40;;;;;;5093259;28;19953;-79
2024/03/03 10:35:12;;;;;;;;;;;17.30;66.80;;;;;;5093450;28;19912;-78
2024/03/03 10:37:50;;;;;;;;;;;17.50;62.10;;;;;;5093678;28;19937;-78
2024/03/03 10:40:16;;;;;;;;;;;17.50;62.20;;;;;;5093002;28;19977;-75
2024/03/03 10:42:41;;;;;;;;;;;17.60;66.40;;;;;;5093356;28;20518;-84
2024/03/03 10:45:07;;;;;;;;;;;17.60;66.70;;;;;;5093768;28;20285;-80
2024/03/03 10:47:33;;;;;;;;;;;17.70;65.90;;;;;;5093112;28;20346;-80
2024/03/03 10:49:58;;;;;;;;;;;17.70;66.80;;;;;;5091764;28;19955;-79
2024/03/03 10:52:24;;;;;;;;;;;17.60;66.90;;;;;;5093047;28;19916;-78
2024/03/03 10:54:50;;;;;;;;;;;17.50;66.70;;;;;;5093129;28;19931;-78
2024/03/03 10:57:19;;;;;;;;;;;17.50;67.00;;;;;;5093035;28;19915;-77
2024/03/03 10:59:45;;;;;;;;;;;17.60;66.80;;;;;;5092990;28;19908;-76
2024/03/03 11:02:11;;;;;;;;;;;17.70;66.20;;;;;;5092810;28;19923;-77
2024/03/03 11:04:39;;;;;;;;;;;17.60;66.90;;;;;;5092954;28;19908;-70
2024/03/03 11:07:04;;;;;;;;;;;17.70;66.90;;;;;;5092942;28;19952;-71
2024/03/03 11:09:30;;;;;;;;;;;17.50;66.20;;;;;;5092874;28;19999;-70
2024/03/03 11:12:00;;;;;;;;;;;17.70;67.20;;;;;;5092858;28;20069;-70
2024/03/03 11:14:31;;;;;;;;;;;18.30;67.30;;;;;;5099475;28;20318;-69
2024/03/03 11:16:57;;;;;;;;;;;17.70;66.80;;;;;;5092682;28;20348;-69
2024/03/03 11:19:26;;;;;;;;;;;17.80;66.90;;;;;;5092639;28;20005;-69
2024/03/03 11:22:00;;;;;;;;;;;17.70;67.10;;;;;;5092519;28;19920;-69
2024/03/03 11:24:35;;;;;;;;;;;17.70;62.40;;;;;;5099610;28;19914;-69
2024/03/03 11:27:07;;;;;;;;;;;17.80;67.10;;;;;;5092605;28;19948;-69
2024/03/03 11:29:32;;;;;;;;;;;17.80;62.30;;;;;;5092442;28;19912;-69
2024/03/03 11:31:59;;;;;;;;;;;17.80;66.50;;;;;;5092802;28;19909;-70
2024/03/03 11:34:25;;;;;;;;;;;18.90;67.50;;;;;;5091102;28;19919;-69
2024/03/03 11:36:51;;;;;;;;;;;17.80;66.60;;;;;;5092354;28;19908;-70
2024/03/03 11:39:18;;;;;;;;;;;17.90;66.80;;;;;;5092177;28;19920;-70
2024/03/03 11:41:47;;;;;;;;;;;17.90;66.10;;;;;;5092231;28;19916;-69
2024/03/03 11:44:31;;;;;;;;;;;18.10;65.30;;;;;;5091744;28;20383;-70
2024/03/03 11:46:58;;;;;;;;;;;18.10;61.30;;;;;;5091992;28;19982;-69
2024/03/03 11:49:24;;;;;;;;;;;18.20;65.90;;;;;;5092302;28;20000;-69
2024/03/03 11:51:50;;;;;;;;;;;18.30;65.00;;;;;;5090628;28;19994;-70
2024/03/03 11:54:28;;;;;;;;;;;18.30;65.20;;;;;;5090702;28;19908;-70
2024/03/03 11:56:56;;;;;;;;;;;18.30;65.30;;;;;;5092080;28;19908;-69
2024/03/03 11:59:24;;;;;;;;;;;18.40;64.90;;;;;;5092004;28;19912;-73
2024/03/03 12:01:50;;;;;;;;;;;18.50;64.30;;;;;;5091698;28;19916;-75
2024/03/03 12:04:15;;;;;;;;;;;18.40;64.70;;;;;;5092010;28;19915;-76
2024/03/03 12:06:42;;;;;;;;;;;18.80;64.50;;;;;;5091926;28;20057;-73
2024/03/03 12:09:12;;;;;;;;;;;18.70;64.30;;;;;;5091924;28;19914;-73
2024/03/03 12:11:38;;;;;;;;;;;18.80;64.20;;;;;;5092047;28;19915;-76
2024/03/03 12:14:03;;;;;;;;;;;18.70;63.90;;;;;;5092270;28;19908;-80
2024/03/03 12:16:32;;;;;;;;;;;18.80;64.10;;;;;;5092351;28;19908;-77
2024/03/03 12:18:57;;;;;;;;;;;18.90;59.70;;;;;;5092259;28;19947;-81
2024/03/03 12:21:23;;;;;;;;;;;18.80;63.80;;;;;;5092190;28;19982;-82
2024/03/03 12:23:49;;;;;;;;;;;18.90;63.80;;;;;;5092071;28;20374;-85
2024/03/03 12:26:15;;;;;;;;;;;18.90;64.10;;;;;;5091841;28;19965;-82
2024/03/03 12:28:40;;;;;;;;;;;18.90;64.20;;;;;;5091767;28;19999;-77
2024/03/03 12:31:06;;;;;;;;;;;18.80;64.40;;;;;;5091842;28;19982;-74
2024/03/03 12:33:33;;;;;;;;;;;19.20;64.80;;;;;;5091814;28;19967;-77
2024/03/03 12:36:00;;;;;;;;;;;18.80;64.60;;;;;;5091795;28;19969;-75
2024/03/03 12:38:26;;;;;;;;;;;18.90;64.80;;;;;;5091510;28;19962;-76
2024/03/03 12:40:51;;;;;;;;;;;18.80;64.90;;;;;;5091610;28;20137;-77
2024/03/03 12:43:17;;;;;;;;;;;18.90;64.80;;;;;;5091853;28;19945;-72
2024/03/03 12:45:43;;;;;;;;;;;18.80;65.00;;;;;;5091689;28;19947;-75
2024/03/03 12:48:09;;;;;;;;;;;18.80;65.50;;;;;;5091512;28;19962;-73
2024/03/03 12:50:34;;;;;;;;;;;18.90;65.00;;;;;;5091576;28;19959;-74
2024/03/03 12:53:04;;;;;;;;;;;19.00;65.60;;;;;;5091415;28;20366;-74
2024/03/03 12:55:29;;;;;;;;;;;19.00;65.20;;;;;;5094154;28;19908;-75
2024/03/03 12:57:56;;;;;;;;;;;19.00;65.00;;;;;;5095566;28;19908;-74
2024/03/03 13:00:22;;;;;;;;;;;19.10;65.20;;;;;;5095555;28;20298;-75
2024/03/03 13:02:47;;;;;;;;;;;19.20;64.80;;;;;;5095204;28;19915;-75
2024/03/03 13:05:14;;;;;;;;;;;19.20;65.30;;;;;;5095194;28;19908;-75
2024/03/03 13:07:47;;;;;;;;;;;18.90;65.30;;;;;;5095247;28;19939;-74
2024/03/03 13:10:14;;;;;;;;;;;19.10;61.00;;;;;;5095448;28;20008;-75
2024/03/03 13:12:39;;;;;;;;;;;19.10;65.40;;;;;;5095156;28;20294;-74
2024/03/03 13:15:08;;;;;;;;;;;19.20;65.60;;;;;;5094927;28;19915;-74
2024/03/03 13:17:33;;;;;;;;;;;19.20;63.80;;;;;;5094994;28;19908;-75
2024/03/03 13:19:59;;;;;;;;;;;19.40;64.70;;;;;;5094840;28;19961;-75
2024/03/03 13:22:25;;;;;;;;;;;19.60;64.50;;;;;;5094742;28;20371;-75
2024/03/03 13:24:52;;;;;;;;;;;19.70;64.20;;;;;;5095089;28;19960;-75
2024/03/03 13:27:18;;;;;;;;;;;19.80;63.70;;;;;;5095363;28;20021;-75
2024/03/03 13:29:43;;;;;;;;;;;20.00;62.90;;;;;;5094852;28;19922;-75
2024/03/03 13:32:09;;;;;;;;;;;20.10;62.60;;;;;;5094724;28;19977;-75
2024/03/03 13:34:34;;;;;;;;;;;20.10;62.40;;;;;;5094783;28;19915;-75
2024/03/03 13:37:00;;;;;;;;;;;20.10;62.30;;;;;;5094779;28;19908;-75
2024/03/03 13:39:25;;;;;;;;;;;20.00;62.20;;;;;;5094485;28;19999;-75
2024/03/03 13:41:52;;;;;;;;;;;20.10;62.30;;;;;;5094585;28;20415;-75
2024/03/03 13:44:17;;;;;;;;;;;20.20;62.20;;;;;;5094680;28;19908;-75
2024/03/03 13:46:43;;;;;;;;;;;20.20;62.00;;;;;;5094454;28;19930;-75
2024/03/03 13:49:12;;;;;;;;;;;20.20;61.90;;;;;;5094490;28;19966;-76
2024/03/03 13:51:37;;;;;;;;;;;20.30;62.10;;;;;;5094395;28;19950;-78
2024/03/03 13:54:03;;;;;;;;;;;20.20;62.10;;;;;;5094375;28;19970;-75
2024/03/03 13:56:29;;;;;;;;;;;20.10;61.70;;;;;;5094499;28;19908;-73
2024/03/03 13:58:55;;;;;;;;;;;20.10;62.20;;;;;;5094562;28;19973;-72
2024/03/03 14:01:22;;;;;;;;;;;20.00;62.60;;;;;;5094335;28;20238;-72
2024/03/03 14:03:48;;;;;;;;;;;20.00;63.00;;;;;;5094060;28;19908;-73
2024/03/03 14:06:14;;;;;;;;;;;20.10;63.20;;;;;;5093472;28;19913;-72
2024/03/03 14:08:40;;;;;;;;;;;19.90;63.40;;;;;;5094221;28;19915;-74
2024/03/03 14:11:06;;;;;;;;;;;20.10;63.10;;;;;;5094014;28;20286;-73
2024/03/03 14:13:34;;;;;;;;;;;20.20;63.20;;;;;;5093991;28;20347;-74